sensor_id;sensor_type;location;lat;lon;timestamp;pressure;altitude;pressure_sealevel;temperature;humidity
57048;BME280;42934;54.294;18.598;2023-04-08T00:01:45;101400.78;;;7.28;85.59
57048;BME280;42934;54.294;18.598;2023-04-08T00:04:14;101410.38;;;7.25;85.73
57048;BME280;42934;54.294;18.598;2023-04-08T00:06:43;101415.59;;;7.28;85.58
57048;BME280;42934;54.294;18.598;2023-04-08T00:09:12;101426.91;;;7.28;85.16
57048;BME280;42934;54.294;18.598;2023-04-08T00:11:42;101427.78;;;7.27;85.03
57048;BME280;42934;54.294;18.598;2023-04-08T00:14:12;101425.31;;;7.06;87.02
57048;BME280;42934;54.294;18.598;2023-04-08T00:16:41;101434.81;;;7.19;86.85
57048;BME280;42934;54.294;18.598;2023-04-08T00:19:11;101434.75;;;7.25;85.97
57048;BME280;42934;54.294;18.598;2023-04-08T00:21:40;101433.00;;;7.27;85.51
57048;BME280;42934;54.294;18.598;2023-04-08T00:24:09;101425.16;;;7.26;86.25
57048;BME280;42934;54.294;18.598;2023-04-08T00:26:38;101423.44;;;7.28;85.61
57048;BME280;42934;54.294;18.598;2023-04-08T00:29:08;101429.53;;;7.30;85.08
57048;BME280;42934;54.294;18.598;2023-04-08T00:31:38;101426.03;;;7.28;84.89
57048;BME280;42934;54.294;18.598;2023-04-08T00:34:08;101428.66;;;7.25;85.34
57048;BME280;42934;54.294;18.598;2023-04-08T00:36:38;101424.31;;;7.25;85.18
57048;BME280;42934;54.294;18.598;2023-04-08T00:39:07;101434.75;;;7.25;85.11
57048;BME280;42934;54.294;18.598;2023-04-08T00:41:36;101440.88;;;7.24;85.69
57048;BME280;42934;54.294;18.598;2023-04-08T00:44:06;101450.47;;;7.24;85.60
57048;BME280;42934;54.294;18.598;2023-04-08T00:46:38;101447.00;;;7.17;85.75
57048;BME280;42934;54.294;18.598;2023-04-08T00:49:07;101451.34;;;7.20;85.60
57048;BME280;42934;54.294;18.598;2023-04-08T00:51:37;101447.00;;;7.19;86.54
57048;BME280;42934;54.294;18.598;2023-04-08T00:54:06;101453.09;;;7.16;86.04
57048;BME280;42934;54.294;18.598;2023-04-08T00:56:35;101452.25;;;7.16;86.26
57048;BME280;42934;54.294;18.598;2023-04-08T00:59:05;101463.59;;;7.07;86.30
57048;BME280;42934;54.294;18.598;2023-04-08T01:01:42;101455.75;;;7.05;86.44
57048;BME280;42934;54.294;18.598;2023-04-08T01:04:20;101455.75;;;7.05;86.92
57048;BME280;42934;54.294;18.598;2023-04-08T01:06:56;101463.59;;;7.05;86.51
57048;BME280;42934;54.294;18.598;2023-04-08T01:09:31;101459.28;;;6.98;86.96
57048;BME280;42934;54.294;18.598;2023-04-08T01:12:04;101463.66;;;6.93;86.75
57048;BME280;42934;54.294;18.598;2023-04-08T01:14:38;101467.19;;;6.85;86.70
57048;BME280;42934;54.294;18.598;2023-04-08T01:17:10;101465.50;;;6.67;87.02
57048;BME280;42934;54.294;18.598;2023-04-08T01:19:40;101462.94;;;6.59;87.48
57048;BME280;42934;54.294;18.598;2023-04-08T01:22:18;101462.91;;;6.64;87.63
57048;BME280;42934;54.294;18.598;2023-04-08T01:24:56;101436.84;;;6.53;87.06
57048;BME280;42934;54.294;18.598;2023-04-08T01:27:30;101461.19;;;6.66;87.45
57048;BME280;42934;54.294;18.598;2023-04-08T01:30:02;101470.72;;;6.71;86.73
57048;BME280;42934;54.294;18.598;2023-04-08T01:32:33;101478.56;;;6.71;86.64
57048;BME280;42934;54.294;18.598;2023-04-08T01:35:04;101473.34;;;6.68;86.98
57048;BME280;42934;54.294;18.598;2023-04-08T01:37:34;101474.22;;;6.69;86.48
57048;BME280;42934;54.294;18.598;2023-04-08T01:40:06;101478.56;;;6.65;87.15
57048;BME280;42934;54.294;18.598;2023-04-08T01:42:39;101485.53;;;6.68;86.45
57048;BME280;42934;54.294;18.598;2023-04-08T01:45:09;101488.16;;;6.60;86.87
57048;BME280;42934;54.294;18.598;2023-04-08T01:47:38;101495.09;;;6.63;86.69
57048;BME280;42934;54.294;18.598;2023-04-08T01:50:10;101493.38;;;6.60;87.22
57048;BME280;42934;54.294;18.598;2023-04-08T01:52:42;101495.97;;;6.66;87.30
57048;BME280;42934;54.294;18.598;2023-04-08T01:55:13;101491.59;;;6.67;86.73
57048;BME280;42934;54.294;18.598;2023-04-08T01:57:46;101489.84;;;6.67;86.47
57048;BME280;42934;54.294;18.598;2023-04-08T02:00:24;101495.97;;;6.68;86.32
57048;BME280;42934;54.294;18.598;2023-04-08T02:02:55;101495.97;;;6.66;87.07
57048;BME280;42934;54.294;18.598;2023-04-08T02:05:25;101496.03;;;6.45;88.01
57048;BME280;42934;54.294;18.598;2023-04-08T02:07:54;101495.16;;;6.38;89.37
57048;BME280;42934;54.294;18.598;2023-04-08T02:10:24;101504.72;;;6.41;89.13
57048;BME280;42934;54.294;18.598;2023-04-08T02:12:55;101499.50;;;6.48;88.39
57048;BME280;42934;54.294;18.598;2023-04-08T02:15:27;101496.84;;;6.60;87.12
57048;BME280;42934;54.294;18.598;2023-04-08T02:18:02;101495.97;;;6.63;86.79
57048;BME280;42934;54.294;18.598;2023-04-08T02:20:37;101497.72;;;6.58;87.25
57048;BME280;42934;54.294;18.598;2023-04-08T02:23:15;101508.19;;;6.56;87.20
57048;BME280;42934;54.294;18.598;2023-04-08T02:25:47;101511.66;;;6.49;88.16
57048;BME280;42934;54.294;18.598;2023-04-08T02:28:19;101513.41;;;6.46;88.79
57048;BME280;42934;54.294;18.598;2023-04-08T02:30:51;101506.47;;;6.45;88.39
57048;BME280;42934;54.294;18.598;2023-04-08T02:33:22;101509.91;;;6.53;88.37
57048;BME280;42934;54.294;18.598;2023-04-08T02:35:54;101503.84;;;6.46;88.57
57048;BME280;42934;54.294;18.598;2023-04-08T02:38:23;101509.06;;;6.51;88.07
57048;BME280;42934;54.294;18.598;2023-04-08T02:40:57;101514.25;;;6.55;87.72
57048;BME280;42934;54.294;18.598;2023-04-08T02:43:29;101515.13;;;6.57;87.45
57048;BME280;42934;54.294;18.598;2023-04-08T02:46:00;101506.41;;;6.55;87.94
57048;BME280;42934;54.294;18.598;2023-04-08T02:48:31;101505.56;;;6.56;87.08
57048;BME280;42934;54.294;18.598;2023-04-08T02:51:00;101506.44;;;6.54;87.77
57048;BME280;42934;54.294;18.598;2023-04-08T02:53:30;101514.25;;;6.57;87.47
57048;BME280;42934;54.294;18.598;2023-04-08T02:55:59;101508.22;;;6.21;90.12
57048;BME280;42934;54.294;18.598;2023-04-08T02:58:29;101512.53;;;6.44;88.79
57048;BME280;42934;54.294;18.598;2023-04-08T03:00:59;101514.28;;;6.31;89.84
57048;BME280;42934;54.294;18.598;2023-04-08T03:03:28;101518.63;;;6.47;88.75
57048;BME280;42934;54.294;18.598;2023-04-08T03:05:58;101522.97;;;6.51;88.21
57048;BME280;42934;54.294;18.598;2023-04-08T03:08:28;101527.31;;;6.54;87.78
57048;BME280;42934;54.294;18.598;2023-04-08T03:10:57;101529.91;;;6.54;87.71
57048;BME280;42934;54.294;18.598;2023-04-08T03:13:26;101528.19;;;6.54;87.57
57048;BME280;42934;54.294;18.598;2023-04-08T03:15:57;101526.44;;;6.52;87.09
57048;BME280;42934;54.294;18.598;2023-04-08T03:18:27;101524.72;;;6.51;87.17
57048;BME280;42934;54.294;18.598;2023-04-08T03:20:56;101525.59;;;6.45;87.19
57048;BME280;42934;54.294;18.598;2023-04-08T03:23:25;101519.50;;;6.17;90.71
57048;BME280;42934;54.294;18.598;2023-04-08T03:25:54;101521.25;;;6.36;89.27
57048;BME280;42934;54.294;18.598;2023-04-08T03:28:23;101521.22;;;6.46;88.62
57048;BME280;42934;54.294;18.598;2023-04-08T03:30:53;101524.69;;;6.49;88.02
57048;BME280;42934;54.294;18.598;2023-04-08T03:33:23;101531.66;;;6.49;88.18
57048;BME280;42934;54.294;18.598;2023-04-08T03:35:53;101532.53;;;6.48;87.54
57048;BME280;42934;54.294;18.598;2023-04-08T03:38:22;101536.88;;;6.50;87.27
57048;BME280;42934;54.294;18.598;2023-04-08T03:40:52;101543.84;;;6.51;87.19
57048;BME280;42934;54.294;18.598;2023-04-08T03:43:21;101537.75;;;6.49;87.94
57048;BME280;42934;54.294;18.598;2023-04-08T03:45:52;101556.03;;;6.48;87.32
57048;BME280;42934;54.294;18.598;2023-04-08T03:48:23;101552.53;;;6.49;87.55
57048;BME280;42934;54.294;18.598;2023-04-08T03:50:52;101543.84;;;6.45;87.19
57048;BME280;42934;54.294;18.598;2023-04-08T03:53:21;101539.50;;;6.40;87.42
57048;BME280;42934;54.294;18.598;2023-04-08T03:55:50;101549.94;;;6.43;87.69
57048;BME280;42934;54.294;18.598;2023-04-08T03:58:19;101550.81;;;6.32;87.40
57048;BME280;42934;54.294;18.598;2023-04-08T04:00:49;101552.53;;;6.35;88.00
57048;BME280;42934;54.294;18.598;2023-04-08T04:03:18;101561.25;;;6.32;87.33
57048;BME280;42934;54.294;18.598;2023-04-08T04:05:49;101557.75;;;6.13;87.51
57048;BME280;42934;54.294;18.598;2023-04-08T04:08:18;101563.84;;;6.22;87.53
57048;BME280;42934;54.294;18.598;2023-04-08T04:10:47;101562.97;;;6.20;86.94
57048;BME280;42934;54.294;18.598;2023-04-08T04:13:16;101556.88;;;6.11;87.15
57048;BME280;42934;54.294;18.598;2023-04-08T04:15:46;101566.41;;;5.88;87.56
57048;BME280;42934;54.294;18.598;2023-04-08T04:18:15;101564.72;;;5.95;87.38
57048;BME280;42934;54.294;18.598;2023-04-08T04:20:45;101576.00;;;5.98;87.49
57048;BME280;42934;54.294;18.598;2023-04-08T04:23:15;101569.06;;;5.96;86.95
57048;BME280;42934;54.294;18.598;2023-04-08T04:25:44;101574.22;;;5.89;86.66
57048;BME280;42934;54.294;18.598;2023-04-08T04:28:13;101581.22;;;5.94;87.02
57048;BME280;42934;54.294;18.598;2023-04-08T04:30:43;101579.44;;;5.89;86.72
57048;BME280;42934;54.294;18.598;2023-04-08T04:33:12;101586.38;;;5.87;86.63
57048;BME280;42934;54.294;18.598;2023-04-08T04:35:41;101586.38;;;5.74;86.89
57048;BME280;42934;54.294;18.598;2023-04-08T04:38:10;101586.38;;;5.74;87.61
57048;BME280;42934;54.294;18.598;2023-04-08T04:40:41;101585.47;;;5.59;88.96
57048;BME280;42934;54.294;18.598;2023-04-08T04:43:10;101583.63;;;5.34;91.14
57048;BME280;42934;54.294;18.598;2023-04-08T04:45:40;101584.47;;;5.28;93.06
57048;BME280;42934;54.294;18.598;2023-04-08T04:48:09;101587.13;;;5.39;93.53
57048;BME280;42934;54.294;18.598;2023-04-08T04:50:38;101593.19;;;5.38;93.87
57048;BME280;42934;54.294;18.598;2023-04-08T04:53:07;101602.78;;;5.46;93.80
57048;BME280;42934;54.294;18.598;2023-04-08T04:55:37;101600.19;;;5.50;93.06
57048;BME280;42934;54.294;18.598;2023-04-08T04:58:07;101601.13;;;5.75;91.19
57048;BME280;42934;54.294;18.598;2023-04-08T05:00:37;101607.22;;;5.84;90.13
57048;BME280;42934;54.294;18.598;2023-04-08T05:03:06;101616.81;;;5.91;89.44
57048;BME280;42934;54.294;18.598;2023-04-08T05:05:36;101617.69;;;5.94;89.01
57048;BME280;42934;54.294;18.598;2023-04-08T05:08:05;101617.72;;;5.95;88.38
57048;BME280;42934;54.294;18.598;2023-04-08T05:10:35;101620.31;;;6.00;88.67
57048;BME280;42934;54.294;18.598;2023-04-08T05:13:04;101617.72;;;6.01;88.28
57048;BME280;42934;54.294;18.598;2023-04-08T05:15:35;101610.78;;;6.03;88.20
57048;BME280;42934;54.294;18.598;2023-04-08T05:18:04;101615.09;;;5.97;88.13
57048;BME280;42934;54.294;18.598;2023-04-08T05:20:33;101619.47;;;5.98;88.35
57048;BME280;42934;54.294;18.598;2023-04-08T05:23:02;101615.97;;;6.02;88.33
57048;BME280;42934;54.294;18.598;2023-04-08T05:25:32;101626.44;;;6.03;88.45
57048;BME280;42934;54.294;18.598;2023-04-08T05:28:01;101623.72;;;5.88;91.23
57048;BME280;42934;54.294;18.598;2023-04-08T05:30:30;101618.53;;;5.86;91.56
57048;BME280;42934;54.294;18.598;2023-04-08T05:33:00;101622.94;;;6.03;89.70
57048;BME280;42934;54.294;18.598;2023-04-08T05:35:30;101629.03;;;6.09;90.01
57048;BME280;42934;54.294;18.598;2023-04-08T05:37:59;101633.41;;;6.09;89.89
57048;BME280;42934;54.294;18.598;2023-04-08T05:40:28;101631.66;;;6.12;89.81
57048;BME280;42934;54.294;18.598;2023-04-08T05:42:58;101637.72;;;6.11;90.24
57048;BME280;42934;54.294;18.598;2023-04-08T05:45:28;101633.41;;;6.09;90.79
57048;BME280;42934;54.294;18.598;2023-04-08T05:47:57;101641.22;;;6.15;90.17
57048;BME280;42934;54.294;18.598;2023-04-08T05:50:28;101647.28;;;6.20;90.02
57048;BME280;42934;54.294;18.598;2023-04-08T05:52:57;101645.53;;;6.08;92.07
57048;BME280;42934;54.294;18.598;2023-04-08T05:55:26;101647.22;;;5.92;94.40
57048;BME280;42934;54.294;18.598;2023-04-08T05:57:56;101646.41;;;5.98;94.76
57048;BME280;42934;54.294;18.598;2023-04-08T06:00:25;101649.06;;;6.18;92.64
57048;BME280;42934;54.294;18.598;2023-04-08T06:02:54;101655.13;;;6.26;92.31
57048;BME280;42934;54.294;18.598;2023-04-08T06:05:24;101659.47;;;6.32;91.04
57048;BME280;42934;54.294;18.598;2023-04-08T06:07:55;101662.97;;;6.22;91.94
57048;BME280;42934;54.294;18.598;2023-04-08T06:10:24;101656.84;;;6.20;93.40
57048;BME280;42934;54.294;18.598;2023-04-08T06:12:53;101660.34;;;6.22;93.43
57048;BME280;42934;54.294;18.598;2023-04-08T06:15:22;101662.97;;;6.19;93.68
57048;BME280;42934;54.294;18.598;2023-04-08T06:17:52;101668.19;;;6.25;93.06
57048;BME280;42934;54.294;18.598;2023-04-08T06:20:21;101671.66;;;6.33;92.63
57048;BME280;42934;54.294;18.598;2023-04-08T06:22:50;101661.22;;;6.28;92.81
57048;BME280;42934;54.294;18.598;2023-04-08T06:25:21;101669.94;;;6.40;92.57
57048;BME280;42934;54.294;18.598;2023-04-08T06:27:50;101676.03;;;6.35;92.65
57048;BME280;42934;54.294;18.598;2023-04-08T06:30:19;101679.44;;;6.14;94.06
57048;BME280;42934;54.294;18.598;2023-04-08T06:32:48;101676.88;;;6.30;93.04
57048;BME280;42934;54.294;18.598;2023-04-08T06:35:18;101677.75;;;6.40;91.84
57048;BME280;42934;54.294;18.598;2023-04-08T06:37:48;101679.47;;;6.37;92.40
57048;BME280;42934;54.294;18.598;2023-04-08T06:40:17;101683.00;;;6.47;92.29
57048;BME280;42934;54.294;18.598;2023-04-08T06:42:47;101686.47;;;6.49;92.39
57048;BME280;42934;54.294;18.598;2023-04-08T06:45:29;101680.34;;;6.38;92.96
57048;BME280;42934;54.294;18.598;2023-04-08T06:47:58;101685.59;;;6.43;92.61
57048;BME280;42934;54.294;18.598;2023-04-08T06:50:28;101699.50;;;6.54;92.81
57048;BME280;42934;54.294;18.598;2023-04-08T06:52:57;101692.56;;;6.54;92.95
57048;BME280;42934;54.294;18.598;2023-04-08T06:55:27;101692.56;;;6.51;93.65
57048;BME280;42934;54.294;18.598;2023-04-08T06:57:57;101697.78;;;6.59;93.81
57048;BME280;42934;54.294;18.598;2023-04-08T07:00:29;101696.91;;;6.69;93.34
57048;BME280;42934;54.294;18.598;2023-04-08T07:02:58;101702.13;;;6.74;92.58
57048;BME280;42934;54.294;18.598;2023-04-08T07:05:27;101703.00;;;6.74;91.96
57048;BME280;42934;54.294;18.598;2023-04-08T07:07:56;101707.34;;;6.78;92.32
57048;BME280;42934;54.294;18.598;2023-04-08T07:10:25;101709.06;;;6.76;93.28
57048;BME280;42934;54.294;18.598;2023-04-08T07:12:55;101700.38;;;6.79;93.42
57048;BME280;42934;54.294;18.598;2023-04-08T07:15:26;101707.34;;;6.91;93.10
57048;BME280;42934;54.294;18.598;2023-04-08T07:17:55;101710.84;;;6.97;92.07
57048;BME280;42934;54.294;18.598;2023-04-08T07:20:25;101716.06;;;6.94;92.66
57048;BME280;42934;54.294;18.598;2023-04-08T07:22:56;101713.44;;;6.93;93.72
57048;BME280;42934;54.294;18.598;2023-04-08T07:25:25;101707.34;;;6.92;93.22
57048;BME280;42934;54.294;18.598;2023-04-08T07:27:54;101713.44;;;6.93;93.74
57048;BME280;42934;54.294;18.598;2023-04-08T07:30:25;101720.41;;;6.72;93.93
57048;BME280;42934;54.294;18.598;2023-04-08T07:32:54;101722.16;;;6.79;94.87
57048;BME280;42934;54.294;18.598;2023-04-08T07:35:28;101723.88;;;7.05;93.54
57048;BME280;42934;54.294;18.598;2023-04-08T07:37:58;101729.06;;;7.20;92.72
57048;BME280;42934;54.294;18.598;2023-04-08T07:40:28;101724.72;;;7.09;92.81
57048;BME280;42934;54.294;18.598;2023-04-08T07:42:57;101724.72;;;7.12;93.35
57048;BME280;42934;54.294;18.598;2023-04-08T07:45:28;101728.22;;;7.14;93.67
57048;BME280;42934;54.294;18.598;2023-04-08T07:47:57;101717.78;;;6.97;93.60
57048;BME280;42934;54.294;18.598;2023-04-08T07:50:27;101731.66;;;7.23;93.73
57048;BME280;42934;54.294;18.598;2023-04-08T07:52:56;101738.63;;;7.32;92.64
57048;BME280;42934;54.294;18.598;2023-04-08T07:55:25;101744.72;;;7.37;92.38
57048;BME280;42934;54.294;18.598;2023-04-08T07:57:55;101733.38;;;7.46;91.31
57048;BME280;42934;54.294;18.598;2023-04-08T08:00:24;101742.97;;;7.48;91.71
57048;BME280;42934;54.294;18.598;2023-04-08T08:02:55;101739.44;;;7.56;91.37
57048;BME280;42934;54.294;18.598;2023-04-08T08:05:24;101737.72;;;7.62;90.93
57048;BME280;42934;54.294;18.598;2023-04-08T08:07:53;101740.28;;;7.67;91.47
57048;BME280;42934;54.294;18.598;2023-04-08T08:10:22;101742.06;;;7.56;92.29
57048;BME280;42934;54.294;18.598;2023-04-08T08:12:51;101742.06;;;7.53;92.39
57048;BME280;42934;54.294;18.598;2023-04-08T08:15:21;101743.78;;;7.64;93.02
57048;BME280;42934;54.294;18.598;2023-04-08T08:17:50;101740.31;;;7.65;92.70
57048;BME280;42934;54.294;18.598;2023-04-08T08:20:21;101740.31;;;7.62;93.42
57048;BME280;42934;54.294;18.598;2023-04-08T08:22:50;101751.63;;;7.73;93.52
57048;BME280;42934;54.294;18.598;2023-04-08T08:25:24;101755.91;;;7.91;92.72
57048;BME280;42934;54.294;18.598;2023-04-08T08:27:53;101761.06;;;8.02;92.49
57048;BME280;42934;54.294;18.598;2023-04-08T08:30:23;101749.72;;;8.08;92.13
57048;BME280;42934;54.294;18.598;2023-04-08T08:32:53;101758.44;;;8.08;92.15
57048;BME280;42934;54.294;18.598;2023-04-08T08:35:24;101759.28;;;8.18;91.94
57048;BME280;42934;54.294;18.598;2023-04-08T08:37:53;101756.59;;;8.29;91.71
57048;BME280;42934;54.294;18.598;2023-04-08T08:40:23;101761.84;;;8.23;90.29
57048;BME280;42934;54.294;18.598;2023-04-08T08:42:52;101754.81;;;8.35;91.21
57048;BME280;42934;54.294;18.598;2023-04-08T08:45:22;101760.03;;;8.45;90.43
57048;BME280;42934;54.294;18.598;2023-04-08T08:47:51;101763.47;;;8.54;90.41
57048;BME280;42934;54.294;18.598;2023-04-08T08:50:20;101766.06;;;8.57;89.96
57048;BME280;42934;54.294;18.598;2023-04-08T08:52:51;101758.13;;;8.67;89.71
57048;BME280;42934;54.294;18.598;2023-04-08T08:55:21;101764.19;;;8.73;89.33
57048;BME280;42934;54.294;18.598;2023-04-08T08:57:53;101760.59;;;8.88;89.42
57048;BME280;42934;54.294;18.598;2023-04-08T09:00:31;101757.03;;;8.98;88.39
57048;BME280;42934;54.294;18.598;2023-04-08T09:03:15;101755.22;;;9.06;88.58
57048;BME280;42934;54.294;18.598;2023-04-08T09:05:50;101752.38;;;9.26;88.23
57048;BME280;42934;54.294;18.598;2023-04-08T09:08:28;101754.91;;;9.39;86.73
57048;BME280;42934;54.294;18.598;2023-04-08T09:11:11;101747.78;;;9.51;85.47
57048;BME280;42934;54.294;18.598;2023-04-08T09:13:41;101750.22;;;9.68;85.87
57048;BME280;42934;54.294;18.598;2023-04-08T09:16:11;101759.72;;;9.78;84.81
57048;BME280;42934;54.294;18.598;2023-04-08T09:18:41;101760.47;;;9.90;84.04
57048;BME280;42934;54.294;18.598;2023-04-08T09:21:12;101759.34;;;10.09;82.61
57048;BME280;42934;54.294;18.598;2023-04-08T09:23:45;101761.84;;;10.17;82.08
57048;BME280;42934;54.294;18.598;2023-04-08T09:26:16;101762.66;;;10.23;81.43
57048;BME280;42934;54.294;18.598;2023-04-08T09:28:57;101769.63;;;10.28;82.76
57048;BME280;42934;54.294;18.598;2023-04-08T09:31:38;101766.97;;;10.31;81.97
57048;BME280;42934;54.294;18.598;2023-04-08T09:34:10;101769.53;;;10.34;81.65
57048;BME280;42934;54.294;18.598;2023-04-08T09:36:41;101768.47;;;10.49;82.54
57048;BME280;42934;54.294;18.598;2023-04-08T09:39:12;101768.38;;;10.56;81.66
57048;BME280;42934;54.294;18.598;2023-04-08T09:41:42;101771.75;;;10.63;79.78
57048;BME280;42934;54.294;18.598;2023-04-08T09:44:11;101767.22;;;10.74;79.72
57048;BME280;42934;54.294;18.598;2023-04-08T09:46:55;101770.41;;;10.95;79.38
57048;BME280;42934;54.294;18.598;2023-04-08T09:49:26;101772.13;;;10.96;76.66
57048;BME280;42934;54.294;18.598;2023-04-08T09:52:02;101771.97;;;11.05;78.69
57048;BME280;42934;54.294;18.598;2023-04-08T09:54:41;101766.44;;;11.20;77.52
57048;BME280;42934;54.294;18.598;2023-04-08T09:57:15;101762.53;;;11.44;76.13
57048;BME280;42934;54.294;18.598;2023-04-08T09:59:51;101759.56;;;11.61;75.43
57048;BME280;42934;54.294;18.598;2023-04-08T10:02:28;101760.16;;;11.75;74.27
57048;BME280;42934;54.294;18.598;2023-04-08T10:04:58;101758.25;;;11.83;72.63
57048;BME280;42934;54.294;18.598;2023-04-08T10:07:34;101759.00;;;11.92;72.25
57048;BME280;42934;54.294;18.598;2023-04-08T10:10:06;101762.38;;;11.98;71.81
57048;BME280;42934;54.294;18.598;2023-04-08T10:12:38;101763.94;;;12.07;70.37
57048;BME280;42934;54.294;18.598;2023-04-08T10:15:24;101753.66;;;12.37;70.31
57048;BME280;42934;54.294;18.598;2023-04-08T10:17:56;101749.66;;;12.58;66.11
57048;BME280;42934;54.294;18.598;2023-04-08T10:20:48;101749.44;;;12.67;64.88
57048;BME280;42934;54.294;18.598;2023-04-08T10:23:18;101741.53;;;13.03;67.90
57048;BME280;42934;54.294;18.598;2023-04-08T10:26:11;101746.25;;;13.26;67.59
57048;BME280;42934;54.294;18.598;2023-04-08T10:29:30;101740.41;;;13.11;62.64
57048;BME280;42934;54.294;18.598;2023-04-08T10:31:59;101742.94;;;13.16;65.98
57048;BME280;42934;54.294;18.598;2023-04-08T10:34:30;101739.50;;;13.48;64.96
57048;BME280;42934;54.294;18.598;2023-04-08T10:37:00;101741.97;;;13.54;62.35
57048;BME280;42934;54.294;18.598;2023-04-08T10:39:33;101735.81;;;13.54;63.88
57048;BME280;42934;54.294;18.598;2023-04-08T10:42:08;101734.16;;;13.81;65.45
57048;BME280;42934;54.294;18.598;2023-04-08T10:44:37;101732.94;;;13.93;62.39
57048;BME280;42934;54.294;18.598;2023-04-08T10:47:12;101737.13;;;14.00;58.48
57048;BME280;42934;54.294;18.598;2023-04-08T10:49:42;101734.50;;;14.00;59.87
57048;BME280;42934;54.294;18.598;2023-04-08T10:52:12;101725.00;;;14.24;61.01
57048;BME280;42934;54.294;18.598;2023-04-08T10:54:46;101731.91;;;14.26;61.17
57048;BME280;42934;54.294;18.598;2023-04-08T10:57:23;101730.75;;;14.37;59.42
57048;BME280;42934;54.294;18.598;2023-04-08T10:59:52;101738.53;;;14.41;60.82
57048;BME280;42934;54.294;18.598;2023-04-08T11:02:21;101726.94;;;14.45;60.54
57048;BME280;42934;54.294;18.598;2023-04-08T11:04:53;101739.53;;;14.37;58.58
57048;BME280;42934;54.294;18.598;2023-04-08T11:07:25;101721.03;;;14.37;60.32
57048;BME280;42934;54.294;18.598;2023-04-08T11:09:55;101723.53;;;14.42;62.56
57048;BME280;42934;54.294;18.598;2023-04-08T11:12:25;101725.03;;;14.50;61.56
57048;BME280;42934;54.294;18.598;2023-04-08T11:14:54;101719.41;;;14.61;59.78
57048;BME280;42934;54.294;18.598;2023-04-08T11:17:23;101723.50;;;14.71;57.80
57048;BME280;42934;54.294;18.598;2023-04-08T11:19:54;101719.06;;;14.72;59.93
57048;BME280;42934;54.294;18.598;2023-04-08T11:22:27;101718.13;;;14.74;58.83
57048;BME280;42934;54.294;18.598;2023-04-08T11:24:58;101718.78;;;14.81;55.51
57048;BME280;42934;54.294;18.598;2023-04-08T11:27:27;101717.34;;;14.97;57.00
57048;BME280;42934;54.294;18.598;2023-04-08T11:29:57;101721.50;;;15.05;59.77
57048;BME280;42934;54.294;18.598;2023-04-08T11:32:29;101716.06;;;15.09;59.31
57048;BME280;42934;54.294;18.598;2023-04-08T11:35:00;101719.16;;;15.22;58.81
57048;BME280;42934;54.294;18.598;2023-04-08T11:37:37;101713.69;;;15.27;56.97
57048;BME280;42934;54.294;18.598;2023-04-08T11:40:09;101719.75;;;15.30;59.23
57048;BME280;42934;54.294;18.598;2023-04-08T11:42:38;101717.69;;;15.38;54.74
57048;BME280;42934;54.294;18.598;2023-04-08T11:45:12;101721.31;;;15.36;51.36
57048;BME280;42934;54.294;18.598;2023-04-08T11:47:43;101718.09;;;15.51;52.23
57048;BME280;42934;54.294;18.598;2023-04-08T11:50:22;101715.31;;;15.31;52.68
57048;BME280;42934;54.294;18.598;2023-04-08T11:52:52;101721.50;;;15.55;54.62
57048;BME280;42934;54.294;18.598;2023-04-08T11:55:24;101712.25;;;15.68;55.58
57048;BME280;42934;54.294;18.598;2023-04-08T11:57:54;101717.59;;;15.90;53.47
57048;BME280;42934;54.294;18.598;2023-04-08T12:00:24;101712.75;;;16.01;56.46
57048;BME280;42934;54.294;18.598;2023-04-08T12:02:54;101711.16;;;15.97;54.57
57048;BME280;42934;54.294;18.598;2023-04-08T12:05:24;101714.41;;;16.04;54.18
57048;BME280;42934;54.294;18.598;2023-04-08T12:07:54;101714.91;;;15.92;52.97
57048;BME280;42934;54.294;18.598;2023-04-08T12:10:24;101714.31;;;16.07;49.82
57048;BME280;42934;54.294;18.598;2023-04-08T12:12:54;101716.09;;;16.06;50.37
57048;BME280;42934;54.294;18.598;2023-04-08T12:15:23;101713.78;;;15.49;48.67
57048;BME280;42934;54.294;18.598;2023-04-08T12:17:52;101712.75;;;16.01;50.31
57048;BME280;42934;54.294;18.598;2023-04-08T12:20:22;101707.16;;;16.09;50.09
57048;BME280;42934;54.294;18.598;2023-04-08T12:22:51;101703.94;;;16.23;49.53
57048;BME280;42934;54.294;18.598;2023-04-08T12:25:22;101705.16;;;15.67;50.80
57048;BME280;42934;54.294;18.598;2023-04-08T12:27:51;101699.78;;;15.94;54.19
57048;BME280;42934;54.294;18.598;2023-04-08T12:30:21;101705.13;;;16.16;55.34
57048;BME280;42934;54.294;18.598;2023-04-08T12:32:50;101701.38;;;16.21;54.83
57048;BME280;42934;54.294;18.598;2023-04-08T12:35:21;101697.91;;;16.41;52.56
57048;BME280;42934;54.294;18.598;2023-04-08T12:37:50;101702.00;;;16.28;54.11
57048;BME280;42934;54.294;18.598;2023-04-08T12:40:19;101700.03;;;16.33;54.06
57048;BME280;42934;54.294;18.598;2023-04-08T12:42:50;101698.16;;;16.35;53.24
57048;BME280;42934;54.294;18.598;2023-04-08T12:45:20;101695.16;;;16.44;52.31
57048;BME280;42934;54.294;18.598;2023-04-08T12:47:49;101699.56;;;16.44;52.34
57048;BME280;42934;54.294;18.598;2023-04-08T12:50:18;101694.66;;;16.34;52.83
57048;BME280;42934;54.294;18.598;2023-04-08T12:52:47;101697.13;;;16.39;51.67
57048;BME280;42934;54.294;18.598;2023-04-08T12:55:16;101699.69;;;16.41;53.81
57048;BME280;42934;54.294;18.598;2023-04-08T12:57:46;101691.56;;;16.23;54.10
57048;BME280;42934;54.294;18.598;2023-04-08T13:00:18;101695.31;;;16.18;52.82
57048;BME280;42934;54.294;18.598;2023-04-08T13:02:47;101688.78;;;16.04;54.08
57048;BME280;42934;54.294;18.598;2023-04-08T13:05:17;101697.91;;;16.19;51.63
57048;BME280;42934;54.294;18.598;2023-04-08T13:08:06;101695.44;;;16.15;51.08